createdAt,value
2023-05-14T00:01:42.154Z,11.93
2023-05-14T00:05:59.422Z,11.88
2023-05-14T00:10:19.097Z,12.35
2023-05-14T00:14:36.380Z,9.70
2023-05-14T00:18:53.742Z,12.65
2023-05-14T00:23:11.531Z,10.38
2023-05-14T00:27:28.807Z,11.23
2023-05-14T00:31:46.126Z,10.70
2023-05-14T00:36:04.137Z,10.32
2023-05-14T00:40:25.866Z,16.57
2023-05-14T00:44:43.200Z,15.85
2023-05-14T00:49:00.540Z,13.68
2023-05-14T00:53:19.641Z,12.93
2023-05-14T00:57:37.561Z,13.18
2023-05-14T01:01:54.834Z,12.07
2023-05-14T01:06:16.497Z,12.73
2023-05-14T01:10:52.722Z,10.35
2023-05-14T01:15:21.104Z,10.98
2023-05-14T01:19:41.967Z,12.00
2023-05-14T01:23:59.167Z,11.75
2023-05-14T01:28:24.055Z,11.35
2023-05-14T01:32:41.997Z,14.00
2023-05-14T01:37:01.526Z,12.50
2023-05-14T01:41:19.609Z,13.10
2023-05-14T01:45:37.394Z,12.17
2023-05-14T01:49:54.849Z,15.80
2023-05-14T01:54:12.514Z,13.43
2023-05-14T01:58:29.835Z,13.45
2023-05-14T02:02:47.086Z,12.57
2023-05-14T02:07:07.290Z,15.30
2023-05-14T02:11:24.500Z,12.55
2023-05-14T02:15:41.729Z,13.70
2023-05-14T02:19:59.019Z,17.48
2023-05-14T02:24:16.563Z,14.20
2023-05-14T02:28:33.973Z,15.70
2023-05-14T02:32:51.552Z,15.20
2023-05-14T02:37:08.966Z,15.93
2023-05-14T02:41:26.532Z,11.90
2023-05-14T02:45:43.847Z,12.75
2023-05-14T02:50:01.013Z,10.82
2023-05-14T02:54:18.425Z,14.57
2023-05-14T02:58:35.614Z,12.45
2023-05-14T03:02:53.439Z,13.13
2023-05-14T03:07:10.979Z,12.07
2023-05-14T03:11:28.157Z,11.88
2023-05-14T03:15:45.742Z,11.15
2023-05-14T03:20:03.570Z,11.07
2023-05-14T03:24:20.778Z,11.60
2023-05-14T03:28:37.993Z,13.18
2023-05-14T03:32:55.575Z,15.65
2023-05-14T03:37:12.921Z,13.75
2023-05-14T03:41:30.236Z,16.33
2023-05-14T03:45:52.393Z,12.93
2023-05-14T03:50:09.822Z,16.48
2023-05-14T03:54:27.150Z,13.70
2023-05-14T03:58:44.417Z,16.70
2023-05-14T04:03:01.788Z,13.00
2023-05-14T04:07:19.350Z,13.55
2023-05-14T04:11:36.871Z,13.43
2023-05-14T04:15:54.062Z,12.95
2023-05-14T04:20:11.657Z,15.00
2023-05-14T04:24:29.074Z,12.27
2023-05-14T04:28:46.306Z,17.02
2023-05-14T04:33:04.098Z,11.27
2023-05-14T04:37:21.693Z,11.07
2023-05-14T04:41:39.364Z,11.73
2023-05-14T04:45:56.575Z,11.90
2023-05-14T04:50:14.331Z,13.00
2023-05-14T04:54:31.651Z,13.27
2023-05-14T04:58:48.918Z,14.15
2023-05-14T05:03:07.277Z,13.55
2023-05-14T05:07:24.701Z,12.90
2023-05-14T05:11:42.035Z,14.15
2023-05-14T05:15:59.493Z,15.05
2023-05-14T05:20:16.905Z,14.00
2023-05-14T05:24:34.048Z,14.32
2023-05-14T05:28:51.250Z,14.18
2023-05-14T05:33:08.552Z,15.40
2023-05-14T05:37:25.932Z,12.95
2023-05-14T05:41:43.832Z,13.75
2023-05-14T05:46:01.724Z,13.20
2023-05-14T05:50:20.883Z,13.77
2023-05-14T05:54:39.851Z,13.10
2023-05-14T05:58:57.469Z,14.95
2023-05-14T06:03:15.009Z,12.85
2023-05-14T06:07:32.285Z,14.85
2023-05-14T06:11:49.659Z,12.77
2023-05-14T06:16:06.998Z,11.77
2023-05-14T06:20:24.635Z,12.82
2023-05-14T06:24:42.349Z,10.65
2023-05-14T06:28:59.962Z,12.50
2023-05-14T06:33:18.689Z,11.25
2023-05-14T06:37:37.264Z,11.82
2023-05-14T06:41:54.551Z,11.50
2023-05-14T06:46:11.722Z,13.73
2023-05-14T06:50:29.175Z,12.65
2023-05-14T06:54:46.328Z,11.43
2023-05-14T06:59:04.648Z,12.10
2023-05-14T07:03:22.326Z,11.55
2023-05-14T07:07:39.578Z,11.55
2023-05-14T07:11:56.762Z,9.15
2023-05-14T07:16:14.194Z,9.85
2023-05-14T07:20:31.663Z,9.93
2023-05-14T07:24:49.530Z,12.35
2023-05-14T07:29:06.977Z,9.63
2023-05-14T07:33:25.363Z,9.07
2023-05-14T07:37:43.044Z,5.70
2023-05-14T07:42:01.513Z,5.07
2023-05-14T07:46:18.697Z,4.65
2023-05-14T07:50:37.085Z,4.40
2023-05-14T07:54:54.991Z,4.45
2023-05-14T07:59:12.228Z,4.35
2023-05-14T08:03:29.630Z,4.53
2023-05-14T08:07:47.306Z,5.22
2023-05-14T08:12:05.098Z,16.50
2023-05-14T08:16:23.751Z,20.83
2023-05-14T08:20:41.220Z,6.43
2023-05-14T08:24:59.205Z,6.45
2023-05-14T08:29:16.917Z,7.80
2023-05-14T08:33:34.258Z,5.75
2023-05-14T08:37:52.313Z,6.13
2023-05-14T08:42:13.120Z,6.47
2023-05-14T08:46:31.960Z,6.72
2023-05-14T08:55:07.916Z,7.78
2023-05-14T08:59:26.392Z,6.70
2023-05-14T09:03:44.150Z,6.30
2023-05-14T09:08:01.790Z,6.80
2023-05-14T09:12:19.504Z,5.60
2023-05-14T09:16:37.351Z,5.70
2023-05-14T09:20:54.845Z,6.68
2023-05-14T09:25:12.392Z,4.78
2023-05-14T09:29:31.225Z,4.45
2023-05-14T09:38:09.461Z,4.00
2023-05-14T09:42:26.723Z,4.35
2023-05-14T09:46:44.883Z,4.90
2023-05-14T09:51:04.078Z,4.47
2023-05-14T09:55:23.223Z,5.15
2023-05-14T09:59:41.102Z,4.38
2023-05-14T10:03:58.781Z,4.13
2023-05-14T10:08:27.959Z,5.20
2023-05-14T10:17:18.613Z,4.28
2023-05-14T10:21:38.462Z,4.10
2023-05-14T10:25:55.952Z,5.22
2023-05-14T10:30:13.376Z,4.97
2023-05-14T10:34:40.654Z,5.38
2023-05-14T10:38:57.968Z,4.90
2023-05-14T10:43:17.427Z,4.78
2023-05-14T10:47:36.826Z,5.00
2023-05-14T10:51:54.371Z,4.50
2023-05-14T10:56:13.793Z,4.10
2023-05-14T11:00:37.379Z,4.70
2023-05-14T11:05:05.891Z,5.63
2023-05-14T11:09:25.619Z,4.93
2023-05-14T11:13:43.206Z,4.47
2023-05-14T11:18:00.521Z,6.55
2023-05-14T11:22:17.950Z,4.30
2023-05-14T11:26:36.137Z,5.07
2023-05-14T11:31:06.239Z,5.03
2023-05-14T11:35:23.886Z,6.07
2023-05-14T11:39:47.941Z,5.38
2023-05-14T11:44:07.264Z,5.55
2023-05-14T11:48:25.775Z,5.53
2023-05-14T11:52:43.137Z,5.95
2023-05-14T11:57:02.617Z,6.03
2023-05-14T12:01:20.135Z,6.00
2023-05-14T12:05:40.341Z,8.55
2023-05-14T12:10:04.852Z,7.03
2023-05-14T12:14:24.215Z,6.75
2023-05-14T12:18:42.789Z,6.03
2023-05-14T12:23:03.212Z,5.82
2023-05-14T12:27:23.868Z,6.05
2023-05-14T12:31:51.358Z,6.13
2023-05-14T12:40:29.263Z,6.70
2023-05-14T12:44:46.504Z,7.25
2023-05-14T12:49:03.823Z,5.20
2023-05-14T12:53:21.077Z,5.75
2023-05-14T12:57:39.599Z,5.03
2023-05-14T13:01:57.017Z,6.32
2023-05-14T13:06:14.388Z,5.32
2023-05-14T13:10:31.801Z,5.40
2023-05-14T13:14:49.252Z,5.28
2023-05-14T13:19:06.788Z,5.35
2023-05-14T13:23:24.086Z,5.68
2023-05-14T13:27:41.417Z,5.63
2023-05-14T13:31:58.626Z,6.53
2023-05-14T13:36:16.411Z,7.90
2023-05-14T13:40:33.585Z,7.72
2023-05-14T13:44:50.889Z,6.72
2023-05-14T13:49:08.177Z,7.43
2023-05-14T13:53:26.426Z,5.85
2023-05-14T13:57:44.294Z,6.35
2023-05-14T14:02:02.842Z,5.15
2023-05-14T14:06:20.332Z,7.18
2023-05-14T14:10:39.995Z,6.93
2023-05-14T14:14:57.353Z,6.95
2023-05-14T14:19:16.222Z,7.05
2023-05-14T14:23:35.052Z,6.90
2023-05-14T14:27:52.526Z,5.30
2023-05-14T14:32:13.950Z,6.75
2023-05-14T14:36:31.729Z,12.18
2023-05-14T14:40:49.299Z,12.82
2023-05-14T14:45:07.801Z,20.98
2023-05-14T14:49:25.297Z,16.90
2023-05-14T14:53:42.835Z,5.82
2023-05-14T14:58:00.265Z,5.93
2023-05-14T15:02:18.145Z,6.05
2023-05-14T15:06:35.679Z,7.28
2023-05-14T15:10:54.229Z,7.65
2023-05-14T15:15:11.979Z,7.40
2023-05-14T15:19:32.323Z,9.80
2023-05-14T15:23:49.841Z,10.88
2023-05-14T15:28:07.815Z,12.98
2023-05-14T15:32:27.310Z,14.93
2023-05-14T15:36:45.200Z,14.65
2023-05-14T15:41:02.605Z,16.80
2023-05-14T15:45:21.628Z,16.75
2023-05-14T15:49:40.047Z,16.65
2023-05-14T15:53:57.543Z,20.40
2023-05-14T15:58:14.976Z,15.20
2023-05-14T16:02:33.408Z,19.02
2023-05-14T16:11:11.602Z,15.13
2023-05-14T16:15:29.446Z,22.85
2023-05-14T16:19:46.997Z,17.25
2023-05-14T16:24:11.550Z,17.42
2023-05-14T16:28:33.787Z,20.67
2023-05-14T16:32:51.321Z,22.00
2023-05-14T16:37:09.717Z,17.73
2023-05-14T16:41:29.117Z,20.70
2023-05-14T16:45:48.140Z,21.80
2023-05-14T16:50:06.929Z,21.80
2023-05-14T16:58:44.147Z,16.37
2023-05-14T17:03:02.470Z,21.80
2023-05-14T17:07:20.068Z,17.60
2023-05-14T17:11:38.404Z,14.60
2023-05-14T17:15:56.078Z,20.45
2023-05-14T17:20:16.119Z,15.30
2023-05-14T17:24:36.568Z,10.25
2023-05-14T17:28:54.826Z,10.15
2023-05-14T17:33:12.447Z,15.93
2023-05-14T17:37:30.450Z,11.07
2023-05-14T17:41:48.387Z,19.52
2023-05-14T17:46:07.291Z,17.52
2023-05-14T17:54:44.335Z,15.55
2023-05-14T17:59:02.005Z,16.48
2023-05-14T18:03:20.538Z,10.07
2023-05-14T18:07:38.331Z,16.13
2023-05-14T18:11:57.072Z,10.70
2023-05-14T18:20:33.492Z,15.30
2023-05-14T18:24:52.995Z,30.70
2023-05-14T18:29:10.880Z,27.08
2023-05-14T18:33:28.494Z,16.85
2023-05-14T18:37:46.462Z,24.83
2023-05-14T18:42:04.559Z,20.70
2023-05-14T18:46:23.465Z,20.13
2023-05-14T18:50:41.404Z,23.08
2023-05-14T18:54:59.181Z,19.85
2023-05-14T18:59:16.775Z,20.42
2023-05-14T19:03:34.557Z,27.17
2023-05-14T19:07:59.694Z,24.58
2023-05-14T19:12:17.402Z,40.67
2023-05-14T19:16:35.073Z,32.22
2023-05-14T19:20:52.674Z,33.05
2023-05-14T19:25:11.234Z,30.25
2023-05-14T19:29:28.883Z,29.08
2023-05-14T19:33:46.833Z,34.03
2023-05-14T19:42:22.966Z,31.45
2023-05-14T19:46:40.829Z,30.98
2023-05-14T19:50:58.567Z,26.83
2023-05-14T19:55:16.093Z,32.72
2023-05-14T19:59:34.752Z,39.83
2023-05-14T20:03:52.309Z,31.98
2023-05-14T20:08:09.790Z,32.08
2023-05-14T20:12:30.220Z,33.25
2023-05-14T20:16:49.079Z,38.92
2023-05-14T20:21:06.584Z,31.88
2023-05-14T20:25:25.946Z,34.50
2023-05-14T20:29:46.709Z,30.67
2023-05-14T20:34:04.220Z,45.40
2023-05-14T20:38:22.438Z,42.40
2023-05-14T20:42:40.155Z,39.30
2023-05-14T20:46:57.683Z,31.92
2023-05-14T20:51:15.110Z,34.45
2023-05-14T20:55:33.213Z,40.47
2023-05-14T20:59:50.601Z,44.43
2023-05-14T21:04:08.179Z,44.78
2023-05-14T21:08:26.074Z,38.53
2023-05-14T21:12:44.791Z,42.22
2023-05-14T21:21:19.464Z,37.60
2023-05-14T21:25:36.811Z,43.92
2023-05-14T21:29:54.100Z,45.08
2023-05-14T21:34:11.487Z,50.70
2023-05-14T21:38:28.941Z,39.83
2023-05-14T21:42:46.172Z,32.53
2023-05-14T21:47:04.411Z,34.53
2023-05-14T21:51:21.658Z,44.15
2023-05-14T21:55:39.106Z,48.13
2023-05-14T21:59:56.325Z,38.85
2023-05-14T22:04:13.634Z,41.10
2023-05-14T22:08:31.110Z,34.97
2023-05-14T22:12:48.542Z,33.15
2023-05-14T22:17:05.760Z,43.25
2023-05-14T22:21:22.970Z,35.03
2023-05-14T22:25:40.518Z,37.83
2023-05-14T22:29:58.754Z,38.80
2023-05-14T22:34:16.223Z,33.42
2023-05-14T22:38:34.312Z,43.20
2023-05-14T22:42:51.593Z,41.73
2023-05-14T22:47:08.968Z,41.42
2023-05-14T22:51:26.177Z,45.92
2023-05-14T22:55:43.847Z,46.13
2023-05-14T23:00:01.417Z,34.42
2023-05-14T23:04:18.689Z,43.45
2023-05-14T23:08:36.078Z,33.15
2023-05-14T23:12:53.309Z,38.63
2023-05-14T23:17:10.792Z,31.88
2023-05-14T23:21:27.998Z,31.75
2023-05-14T23:25:45.274Z,34.42
2023-05-14T23:30:03.670Z,27.40
2023-05-14T23:34:22.084Z,32.45
2023-05-14T23:38:40.083Z,36.65
2023-05-14T23:43:00.541Z,26.47
2023-05-14T23:47:17.726Z,31.45
2023-05-14T23:51:35.135Z,26.13
2023-05-14T23:55:52.410Z,30.25
